Time;durP1;ratioP1;P1;durP2;ratioP2;P2;SDS_P1;SDS_P2;PMS_P1;PMS_P2;Temp;Humidity;BMP_temperature;BMP_pressure;BME280_temperature;BME280_humidity;BME280_pressure;Samples;Min_cycle;Max_cycle;Signal;HPM_P1;HPM_P2
2022/03/26 00:00:08;;;;;;;50.20;28.45;;;6.80;99.90;;;;;;5055698;28;20102;-72
2022/03/26 00:02:33;;;;;;;52.17;27.13;;;6.90;99.90;;;;;;5055578;28;20504;-71
2022/03/26 00:04:59;;;;;;;48.20;26.73;;;6.80;99.90;;;;;;5055394;28;20045;-70
2022/03/26 00:07:24;;;;;;;44.50;24.85;;;6.70;99.90;;;;;;5055785;28;20031;-70
2022/03/26 00:09:50;;;;;;;45.40;24.85;;;6.80;99.90;;;;;;5055520;28;20363;-71
2022/03/26 00:12:16;;;;;;;41.85;23.40;;;6.70;99.90;;;;;;5055744;28;20025;-70
2022/03/26 00:14:41;;;;;;;41.28;23.77;;;6.60;99.90;;;;;;5055173;28;20025;-71
2022/03/26 00:17:07;;;;;;;47.08;25.45;;;6.60;99.90;;;;;;5055408;28;20020;-69
2022/03/26 00:19:33;;;;;;;44.20;24.23;;;6.50;99.90;;;;;;5055592;28;20025;-70
2022/03/26 00:21:58;;;;;;;39.22;23.80;;;6.60;99.90;;;;;;5037396;28;20033;-71
2022/03/26 00:24:24;;;;;;;45.17;24.52;;;6.60;99.90;;;;;;5037341;28;20032;-70
2022/03/26 00:26:50;;;;;;;48.40;24.20;;;6.50;99.90;;;;;;5055100;28;20135;-72
2022/03/26 00:29:15;;;;;;;42.72;23.98;;;6.50;99.90;;;;;;5055131;28;20051;-71
2022/03/26 00:31:41;;;;;;;43.28;24.55;;;6.40;99.90;;;;;;5055098;28;20021;-70
2022/03/26 00:34:07;;;;;;;44.00;24.48;;;6.30;99.90;;;;;;5054733;28;20074;-71
2022/03/26 00:36:33;;;;;;;44.38;22.52;;;6.20;99.90;;;;;;5055006;28;20485;-70
2022/03/26 00:38:59;;;;;;;43.35;23.17;;;6.10;99.90;;;;;;5055219;28;20044;-71
2022/03/26 00:41:25;;;;;;;37.85;22.35;;;5.90;99.90;;;;;;5054861;28;20386;-72
2022/03/26 00:43:51;;;;;;;40.30;22.40;;;5.80;99.90;;;;;;5054879;28;20021;-72
2022/03/26 00:46:17;;;;;;;37.90;21.75;;;5.70;99.90;;;;;;5054768;28;20032;-72
2022/03/26 00:48:43;;;;;;;40.97;22.73;;;5.60;99.90;;;;;;5054675;28;20035;-70
2022/03/26 00:51:09;;;;;;;41.50;23.23;;;5.60;99.90;;;;;;5054722;28;20025;-71
2022/03/26 00:53:35;;;;;;;37.67;21.60;;;5.50;99.90;;;;;;5054738;28;20017;-71
2022/03/26 00:56:01;;;;;;;42.05;23.13;;;5.50;99.90;;;;;;5036685;28;20060;-70
2022/03/26 00:58:26;;;;;;;45.70;23.35;;;5.40;99.90;;;;;;5054557;28;20029;-73
2022/03/26 01:00:52;;;;;;;40.97;23.20;;;5.40;99.90;;;;;;5054533;28;20033;-69
2022/03/26 01:03:18;;;;;;;41.55;23.05;;;5.40;99.90;;;;;;5054479;28;20055;-70
2022/03/26 01:05:44;;;;;;;44.28;24.73;;;5.50;99.90;;;;;;5054273;28;20506;-72
2022/03/26 01:08:10;;;;;;;46.03;25.33;;;5.60;99.90;;;;;;5054311;28;20028;-71
2022/03/26 01:10:35;;;;;;;42.17;22.80;;;5.60;99.90;;;;;;5054350;28;20040;-70
2022/03/26 01:13:02;;;;;;;45.28;23.80;;;5.70;99.90;;;;;;5054858;28;20051;-70
2022/03/26 01:15:27;;;;;;;44.50;22.45;;;5.60;99.90;;;;;;5054248;28;20433;-71
2022/03/26 01:17:53;;;;;;;46.40;23.00;;;5.70;99.90;;;;;;5054451;28;20064;-70
2022/03/26 01:20:19;;;;;;;38.92;22.13;;;5.60;99.90;;;;;;5054429;28;20029;-70
2022/03/26 01:22:45;;;;;;;46.83;24.88;;;5.60;99.90;;;;;;5054377;28;20385;-70
2022/03/26 01:25:11;;;;;;;47.30;26.25;;;5.60;99.90;;;;;;5054040;28;20503;-72
2022/03/26 01:27:37;;;;;;;46.83;26.00;;;5.60;99.90;;;;;;5053935;28;20052;-72
2022/03/26 01:30:03;;;;;;;44.53;24.92;;;5.70;99.90;;;;;;5053953;28;20053;-70
2022/03/26 01:32:30;;;;;;;52.38;26.17;;;5.70;99.90;;;;;;5053843;28;20021;-70
2022/03/26 01:34:55;;;;;;;52.55;26.05;;;5.80;99.90;;;;;;5053871;28;20052;-73
2022/03/26 01:37:21;;;;;;;46.10;25.90;;;5.90;99.90;;;;;;5053843;28;20021;-70
2022/03/26 01:39:47;;;;;;;45.70;23.45;;;6.00;99.90;;;;;;5053843;28;20063;-69
2022/03/26 01:42:13;;;;;;;46.58;24.50;;;5.90;99.90;;;;;;5054051;28;20032;-70
2022/03/26 01:44:39;;;;;;;48.42;25.65;;;5.90;99.90;;;;;;5035006;28;20059;-69
2022/03/26 01:47:05;;;;;;;42.20;23.75;;;5.90;99.90;;;;;;5053910;28;20025;-69
2022/03/26 01:49:32;;;;;;;47.85;25.63;;;5.90;99.90;;;;;;5035790;28;20409;-71
2022/03/26 01:51:59;;;;;;;40.80;23.40;;;5.70;99.90;;;;;;5053605;28;20029;-71
2022/03/26 01:54:27;;;;;;;34.92;19.02;;;5.60;99.90;;;;;;5053505;28;20393;-71
2022/03/26 01:56:54;;;;;;;38.15;20.77;;;5.30;99.90;;;;;;5053473;28;20100;-69
2022/03/26 01:59:21;;;;;;;39.63;21.35;;;5.00;99.90;;;;;;5035547;28;20029;-72
2022/03/26 02:01:46;;;;;;;32.97;19.30;;;4.80;99.90;;;;;;5053435;28;20024;-69
2022/03/26 02:04:12;;;;;;;41.92;21.90;;;4.70;99.90;;;;;;5053402;28;20362;-70
2022/03/26 02:06:39;;;;;;;43.25;23.02;;;4.60;99.90;;;;;;5065819;28;20056;-72
2022/03/26 02:09:10;;;;;;;47.17;24.05;;;4.60;99.90;;;;;;5072082;28;20416;-71
2022/03/26 02:11:41;;;;;;;46.35;23.17;;;4.60;99.90;;;;;;5073398;28;20106;-70
2022/03/26 02:14:08;;;;;;;43.92;22.85;;;4.60;99.90;;;;;;5073864;28;20021;-71
2022/03/26 02:16:36;;;;;;;41.63;22.83;;;4.60;99.90;;;;;;5073600;28;20024;-69
2022/03/26 02:19:03;;;;;;;44.63;22.35;;;4.60;99.90;;;;;;5073281;28;20130;-69
2022/03/26 02:21:30;;;;;;;45.83;22.38;;;4.50;99.90;;;;;;5073551;28;20038;-70
2022/03/26 02:23:56;;;;;;;41.10;21.30;;;4.50;99.90;;;;;;5073245;28;20024;-71
2022/03/26 02:26:26;;;;;;;42.25;22.67;;;4.50;99.90;;;;;;5073194;28;20028;-69
2022/03/26 02:28:53;;;;;;;38.80;22.70;;;4.60;99.90;;;;;;5073394;28;20452;-73
2022/03/26 02:31:19;;;;;;;44.17;22.88;;;4.50;99.90;;;;;;5073121;28;20362;-72
2022/03/26 02:33:45;;;;;;;37.92;22.10;;;4.50;99.90;;;;;;5073392;28;20024;-71
2022/03/26 02:36:11;;;;;;;39.88;21.55;;;4.50;99.90;;;;;;5071819;28;20377;-70
2022/03/26 02:38:37;;;;;;;54.15;23.80;;;4.50;99.90;;;;;;5073104;28;20499;-71
2022/03/26 02:41:05;;;;;;;42.53;22.15;;;4.50;99.90;;;;;;5073007;28;20029;-71
2022/03/26 02:43:30;;;;;;;46.08;23.05;;;4.50;99.90;;;;;;5073082;28;20028;-70
2022/03/26 02:45:57;;;;;;;46.95;23.70;;;4.50;99.90;;;;;;5073028;28;20370;-73
2022/03/26 02:48:23;;;;;;;43.72;22.85;;;4.60;99.90;;;;;;5073255;28;20024;-71
2022/03/26 02:50:49;;;;;;;52.60;26.70;;;4.50;99.90;;;;;;5072975;28;20039;-69
2022/03/26 02:53:15;;;;;;;46.78;22.92;;;4.50;99.90;;;;;;5072922;28;20017;-74
2022/03/26 02:55:41;;;;;;;39.10;20.05;;;4.50;99.90;;;;;;5073894;28;20026;-70
2022/03/26 02:58:08;;;;;;;38.25;22.02;;;4.30;99.90;;;;;;5076873;28;20017;-70
2022/03/26 03:00:40;;;;;;;41.70;20.88;;;4.30;99.90;;;;;;5076819;28;20450;-71
2022/03/26 03:03:06;;;;;;;44.55;21.95;;;4.20;99.90;;;;;;5076858;28;20476;-71
2022/03/26 03:05:33;;;;;;;41.28;22.42;;;4.30;99.90;;;;;;5068590;28;20056;-69
2022/03/26 03:08:00;;;;;;;39.15;21.63;;;4.40;99.90;;;;;;5057191;28;20409;-71
2022/03/26 03:10:26;;;;;;;41.03;22.00;;;4.40;99.90;;;;;;5056664;28;20017;-71
2022/03/26 03:12:51;;;;;;;38.38;21.42;;;4.40;99.90;;;;;;5056603;28;20024;-72
2022/03/26 03:15:17;;;;;;;42.63;23.98;;;4.30;99.90;;;;;;5056503;28;20048;-70
2022/03/26 03:17:45;;;;;;;46.08;23.48;;;4.30;99.90;;;;;;5056750;28;20052;-71
2022/03/26 03:20:12;;;;;;;46.22;22.58;;;4.30;99.90;;;;;;5056464;28;20031;-72
2022/03/26 03:22:38;;;;;;;39.88;22.42;;;4.20;99.90;;;;;;5056669;28;20025;-70
2022/03/26 03:25:07;;;;;;;38.80;21.85;;;4.00;99.90;;;;;;5056376;28;20036;-71
2022/03/26 03:27:33;;;;;;;44.05;22.13;;;3.80;99.90;;;;;;5056225;28;20051;-69
2022/03/26 03:29:59;;;;;;;41.20;21.88;;;3.70;99.90;;;;;;5056312;28;20029;-72
2022/03/26 03:32:25;;;;;;;42.60;21.30;;;3.70;99.90;;;;;;5056239;28;20024;-71
2022/03/26 03:34:51;;;;;;;42.42;22.70;;;3.70;99.90;;;;;;5056148;28;20049;-70
2022/03/26 03:37:17;;;;;;;44.10;22.02;;;3.70;99.90;;;;;;5056133;28;20060;-71
2022/03/26 03:39:43;;;;;;;41.63;21.70;;;3.70;99.90;;;;;;5056099;28;20055;-71
2022/03/26 03:42:09;;;;;;;43.38;23.45;;;3.70;99.90;;;;;;5056099;28;20025;-70
2022/03/26 03:44:35;;;;;;;43.22;22.90;;;3.80;99.90;;;;;;5056085;28;20047;-70
2022/03/26 03:47:02;;;;;;;37.10;20.73;;;3.70;99.90;;;;;;5055904;28;20021;-69
2022/03/26 03:49:31;;;;;;;48.85;24.15;;;3.70;99.90;;;;;;5055932;28;20025;-69
2022/03/26 03:51:57;;;;;;;42.22;21.55;;;3.70;99.90;;;;;;5056166;28;20025;-72
2022/03/26 03:54:23;;;;;;;41.10;20.73;;;3.70;99.90;;;;;;5055820;28;20117;-72
2022/03/26 03:56:49;;;;;;;41.67;21.77;;;3.60;99.90;;;;;;5055944;28;20053;-71
2022/03/26 03:59:15;;;;;;;40.20;21.08;;;3.60;99.90;;;;;;5055754;28;20021;-70
2022/03/26 04:01:41;;;;;;;40.85;20.38;;;3.50;99.90;;;;;;5055916;28;20024;-71
2022/03/26 04:04:07;;;;;;;36.92;20.45;;;3.50;99.90;;;;;;5055934;28;20053;-72
2022/03/26 04:06:32;;;;;;;35.40;19.38;;;3.50;99.90;;;;;;5055184;28;20123;-70
2022/03/26 04:08:58;;;;;;;37.08;18.58;;;3.30;99.90;;;;;;5054848;28;20033;-70
2022/03/26 04:11:24;;;;;;;37.33;20.02;;;3.30;99.90;;;;;;5055543;28;20017;-72
2022/03/26 04:13:53;;;;;;;41.67;21.15;;;3.30;99.90;;;;;;5055464;28;20025;-72
2022/03/26 04:16:22;;;;;;;43.90;22.17;;;3.30;99.90;;;;;;5037541;28;20446;-71
2022/03/26 04:18:48;;;;;;;42.03;21.67;;;3.40;99.90;;;;;;5055325;28;20024;-69
2022/03/26 04:21:14;;;;;;;40.55;21.52;;;3.50;99.90;;;;;;5055306;28;20021;-70
2022/03/26 04:23:40;;;;;;;42.20;22.10;;;3.60;99.90;;;;;;5037434;28;20413;-71
2022/03/26 04:26:09;;;;;;;45.03;23.90;;;3.60;99.90;;;;;;5055215;28;20032;-70
2022/03/26 04:28:35;;;;;;;39.03;21.85;;;3.60;99.90;;;;;;5055407;28;20029;-72
2022/03/26 04:31:02;;;;;;;42.20;21.70;;;3.50;99.90;;;;;;5037226;28;20021;-71
2022/03/26 04:33:27;;;;;;;45.40;22.63;;;3.40;99.90;;;;;;5055097;28;20092;-69
2022/03/26 04:35:53;;;;;;;43.88;21.85;;;3.50;99.90;;;;;;5055592;28;20040;-70
2022/03/26 04:38:19;;;;;;;42.78;21.88;;;3.40;99.90;;;;;;5037142;28;20469;-71
2022/03/26 04:40:46;;;;;;;37.03;20.13;;;3.40;99.90;;;;;;5054978;28;20021;-69
2022/03/26 04:43:13;;;;;;;37.38;20.17;;;3.30;99.90;;;;;;5055454;28;20078;-72
2022/03/26 04:45:39;;;;;;;39.45;20.58;;;3.30;99.90;;;;;;5055099;28;20070;-72
2022/03/26 04:48:05;;;;;;;36.70;19.77;;;3.10;99.90;;;;;;5054733;28;20032;-70
2022/03/26 04:50:30;;;;;;;45.70;22.00;;;3.10;99.90;;;;;;5036937;28;20112;-70
2022/03/26 04:52:56;;;;;;;39.50;20.10;;;3.10;99.90;;;;;;5054764;28;20497;-70
2022/03/26 04:55:22;;;;;;;37.70;19.90;;;3.10;99.90;;;;;;5054635;28;20025;-72
2022/03/26 04:57:48;;;;;;;40.75;20.05;;;3.00;99.90;;;;;;5054576;28;20061;-70
2022/03/26 05:00:16;;;;;;;36.83;19.25;;;2.90;99.90;;;;;;5054800;28;20028;-72
2022/03/26 05:02:42;;;;;;;37.95;19.30;;;2.90;99.90;;;;;;5036631;28;20029;-69
2022/03/26 05:05:09;;;;;;;41.13;20.48;;;2.80;99.90;;;;;;5054698;28;20041;-71
2022/03/26 05:07:45;;;;;;;37.83;19.95;;;2.90;99.90;;;;;;5054387;28;20068;-70
2022/03/26 05:10:15;;;;;;;38.78;20.17;;;2.90;99.90;;;;;;5054701;28;20020;-72
2022/03/26 05:12:41;;;;;;;37.13;19.33;;;2.90;99.90;;;;;;5054378;28;20025;-71
2022/03/26 05:15:08;;;;;;;39.45;18.73;;;2.90;99.90;;;;;;5054537;28;20028;-73
2022/03/26 05:17:35;;;;;;;37.15;19.45;;;2.90;99.90;;;;;;5054272;28;20024;-72
2022/03/26 05:20:01;;;;;;;42.83;22.15;;;2.90;99.90;;;;;;5054342;28;20427;-70
2022/03/26 05:22:28;;;;;;;38.35;19.10;;;2.90;99.90;;;;;;5054191;28;20033;-70
2022/03/26 05:24:54;;;;;;;41.03;20.80;;;2.90;99.90;;;;;;5054402;28;20561;-69
2022/03/26 05:27:20;;;;;;;37.53;20.73;;;2.80;99.90;;;;;;5054004;28;20099;-69
2022/03/26 05:29:46;;;;;;;45.35;21.42;;;2.70;99.90;;;;;;5054049;28;20036;-71
2022/03/26 05:32:12;;;;;;;51.78;27.27;;;2.70;99.90;;;;;;5054025;28;20104;-69
2022/03/26 05:34:39;;;;;;;58.83;32.78;;;2.80;99.90;;;;;;5053886;28;20031;-70
2022/03/26 05:37:05;;;;;;;43.58;20.92;;;2.80;99.90;;;;;;5053779;28;20017;-70
2022/03/26 05:39:31;;;;;;;43.30;20.40;;;2.70;99.90;;;;;;5036020;28;20107;-71
2022/03/26 05:41:57;;;;;;;35.47;17.75;;;2.60;99.90;;;;;;5053775;28;20025;-70
2022/03/26 05:44:22;;;;;;;35.08;18.25;;;2.50;99.90;;;;;;5054032;28;20060;-70
2022/03/26 05:46:48;;;;;;;37.53;19.70;;;2.50;99.90;;;;;;5053901;28;20060;-70
2022/03/26 05:49:14;;;;;;;36.72;17.08;;;2.50;99.90;;;;;;5053959;28;20021;-69
2022/03/26 05:51:40;;;;;;;38.92;19.23;;;2.50;99.90;;;;;;5053660;28;20017;-70
2022/03/26 05:54:05;;;;;;;42.78;19.52;;;2.50;99.90;;;;;;5053645;28;20101;-71
2022/03/26 05:56:36;;;;;;;44.72;19.52;;;2.60;99.90;;;;;;5053460;28;20381;-68
2022/03/26 05:59:06;;;;;;;;;;;2.60;99.90;;;;;;5054255;28;20021;-69
2022/03/26 06:01:32;;;;;;;40.43;20.37;;;2.70;99.90;;;;;;5054043;28;19905;-68
2022/03/26 06:03:58;;;;;;;39.20;20.42;;;2.70;99.90;;;;;;5035543;28;20050;-71
2022/03/26 06:06:24;;;;;;;49.67;22.45;;;2.70;99.90;;;;;;5053116;28;20044;-73
2022/03/26 06:08:49;;;;;;;44.65;22.13;;;2.80;99.90;;;;;;5053275;28;20496;-70
2022/03/26 06:11:15;;;;;;;41.67;21.15;;;3.00;99.90;;;;;;5053341;28;20021;-70
2022/03/26 06:13:40;;;;;;;36.78;19.27;;;3.10;99.90;;;;;;5053592;28;20032;-71
2022/03/26 06:16:06;;;;;;;37.72;19.52;;;3.20;99.90;;;;;;5053314;28;20075;-73
2022/03/26 06:18:32;;;;;;;37.88;18.58;;;3.10;99.90;;;;;;5053235;28;20060;-69
2022/03/26 06:20:58;;;;;;;32.30;16.88;;;3.10;99.90;;;;;;5053189;28;20057;-69
2022/03/26 06:23:23;;;;;;;35.55;18.40;;;3.10;99.90;;;;;;5053718;28;20028;-70
2022/03/26 06:25:49;;;;;;;34.72;17.60;;;3.10;99.90;;;;;;5053131;28;20026;-71
2022/03/26 06:28:19;;;;;;;34.47;17.83;;;3.10;99.90;;;;;;5053056;28;20099;-70
2022/03/26 06:30:46;;;;;;;36.87;17.73;;;3.30;99.90;;;;;;5052612;28;20028;-70
2022/03/26 06:33:13;;;;;;;37.92;19.23;;;3.40;99.90;;;;;;5053115;28;20028;-71
2022/03/26 06:35:38;;;;;;;37.55;17.48;;;3.60;99.90;;;;;;5053059;28;20091;-73
2022/03/26 06:38:04;;;;;;;34.17;18.67;;;3.70;99.90;;;;;;5053104;28;20490;-69
2022/03/26 06:40:30;;;;;;;47.53;19.92;;;3.80;99.90;;;;;;5053275;28;20025;-71
2022/03/26 06:42:56;;;;;;;35.05;18.42;;;4.00;99.90;;;;;;5053030;28;20103;-72
2022/03/26 06:45:22;;;;;;;32.88;17.33;;;4.10;99.90;;;;;;5035110;28;20025;-69
2022/03/26 06:47:47;;;;;;;37.80;18.45;;;4.30;99.90;;;;;;5052846;28;20489;-73
2022/03/26 06:50:13;;;;;;;38.38;20.45;;;4.40;99.90;;;;;;5053186;28;20032;-71
2022/03/26 06:52:39;;;;;;;33.50;19.63;;;4.60;99.90;;;;;;5052877;28;20104;-69
2022/03/26 06:55:06;;;;;;;28.48;15.90;;;4.80;99.90;;;;;;5052828;28;20060;-69
2022/03/26 06:57:31;;;;;;;33.05;17.17;;;4.90;99.90;;;;;;5053386;28;20029;-71
2022/03/26 06:59:57;;;;;;;32.83;17.88;;;5.10;99.90;;;;;;5052853;28;20091;-70
2022/03/26 07:02:23;;;;;;;31.25;16.60;;;5.30;99.90;;;;;;5052805;28;20029;-70
2022/03/26 07:04:48;;;;;;;33.10;16.27;;;5.40;99.90;;;;;;5052896;28;20040;-70
2022/03/26 07:07:14;;;;;;;35.45;18.95;;;5.60;99.90;;;;;;5053311;28;20454;-70
2022/03/26 07:09:41;;;;;;;36.60;20.73;;;5.90;99.90;;;;;;5052673;28;20071;-70
2022/03/26 07:12:07;;;;;;;34.42;19.38;;;6.10;99.90;;;;;;5052744;28;20096;-69
2022/03/26 07:14:32;;;;;;;35.63;19.50;;;6.20;99.90;;;;;;5052664;28;20477;-71
2022/03/26 07:16:58;;;;;;;34.88;19.75;;;6.30;99.90;;;;;;5052687;28;20043;-69
2022/03/26 07:19:24;;;;;;;32.83;17.23;;;6.40;99.90;;;;;;5052632;28;20049;-70
2022/03/26 07:21:49;;;;;;;35.13;18.83;;;6.50;99.90;;;;;;5053172;28;20025;-72
2022/03/26 07:24:15;;;;;;;35.08;19.55;;;6.60;99.90;;;;;;5052618;28;20024;-71
2022/03/26 07:26:41;;;;;;;36.72;19.08;;;6.70;99.90;;;;;;5034732;28;20021;-70
2022/03/26 07:29:06;;;;;;;34.60;19.00;;;6.80;99.90;;;;;;5052492;28;20029;-70
2022/03/26 07:31:32;;;;;;;36.38;19.45;;;7.00;99.90;;;;;;5052550;28;20029;-69
2022/03/26 07:33:58;;;;;;;36.95;18.95;;;7.10;99.90;;;;;;5052537;28;20489;-71
2022/03/26 07:36:23;;;;;;;32.97;19.60;;;7.30;99.90;;;;;;5034680;28;20021;-70
2022/03/26 07:38:49;;;;;;;36.60;19.10;;;7.60;99.90;;;;;;5052512;28;20061;-71
2022/03/26 07:41:15;;;;;;;32.55;18.65;;;7.80;99.90;;;;;;5052506;28;20445;-72
2022/03/26 07:43:40;;;;;;;31.30;18.48;;;8.10;99.90;;;;;;5054683;28;20029;-70
2022/03/26 07:46:07;;;;;;;31.65;19.25;;;8.30;99.90;;;;;;5056332;28;20028;-70
2022/03/26 07:48:32;;;;;;;40.60;20.13;;;8.60;99.90;;;;;;5056172;28;20025;-71
2022/03/26 07:50:58;;;;;;;36.47;19.70;;;8.90;99.90;;;;;;5056177;28;20025;-71
2022/03/26 07:53:25;;;;;;;37.42;20.95;;;9.50;99.90;;;;;;5056105;28;20025;-72
2022/03/26 07:55:51;;;;;;;30.48;19.77;;;12.80;99.90;;;;;;5056031;28;20381;-71
2022/03/26 07:58:17;;;;;;;34.10;19.25;;;17.40;99.90;;;;;;5055788;28;20032;-72
2022/03/26 08:00:42;;;;;;;31.67;20.60;;;20.30;92.60;;;;;;5055740;28;20382;-71
2022/03/26 08:03:10;;;;;;;29.70;19.95;;;22.20;82.70;;;;;;5055692;28;20029;-71
2022/03/26 08:05:36;;;;;;;31.50;21.27;;;23.60;73.30;;;;;;5055454;28;20509;-70
2022/03/26 08:08:02;;;;;;;30.20;21.27;;;24.80;66.10;;;;;;5055512;28;20061;-71
2022/03/26 08:10:27;;;;;;;27.42;20.45;;;25.60;60.90;;;;;;5055547;28;20104;-72
2022/03/26 08:12:53;;;;;;;28.88;20.63;;;26.20;57.70;;;;;;5056025;28;20056;-73
2022/03/26 08:15:19;;;;;;;31.48;22.20;;;26.80;55.50;;;;;;5055476;28;20055;-73
2022/03/26 08:17:45;;;;;;;29.15;20.75;;;27.30;53.40;;;;;;5055427;28;20067;-72
2022/03/26 08:20:11;;;;;;;29.02;21.02;;;28.00;52.20;;;;;;5055357;28;20025;-72
2022/03/26 08:22:37;;;;;;;28.35;21.27;;;28.30;50.90;;;;;;5055338;28;20024;-74
2022/03/26 08:25:03;;;;;;;30.80;24.73;;;28.80;50.30;;;;;;5055280;28;20474;-73
2022/03/26 08:27:29;;;;;;;27.35;20.17;;;29.40;49.00;;;;;;5055158;28;20029;-72
2022/03/26 08:29:54;;;;;;;26.60;22.45;;;29.90;48.30;;;;;;5055246;28;20087;-70
2022/03/26 08:32:20;;;;;;;26.60;20.83;;;30.40;47.00;;;;;;5055122;28;20025;-70
2022/03/26 08:34:46;;;;;;;25.73;20.08;;;31.20;46.50;;;;;;5055381;28;20017;-73
2022/03/26 08:37:11;;;;;;;27.23;20.63;;;31.30;45.50;;;;;;5055046;28;20036;-73
2022/03/26 08:39:37;;;;;;;25.65;20.33;;;31.70;44.70;;;;;;5055585;28;20024;-73
2022/03/26 08:42:03;;;;;;;24.48;19.98;;;32.10;44.30;;;;;;5054947;28;20033;-74
2022/03/26 08:44:29;;;;;;;23.42;19.75;;;32.70;43.40;;;;;;5055424;28;20024;-72
2022/03/26 08:46:55;;;;;;;21.60;18.58;;;33.10;42.70;;;;;;5055061;28;20036;-73
2022/03/26 08:49:21;;;;;;;26.05;19.08;;;33.90;42.10;;;;;;5055106;28;20147;-72
2022/03/26 08:51:47;;;;;;;27.77;20.85;;;34.00;41.40;;;;;;5054766;28;20070;-72
2022/03/26 08:54:13;;;;;;;23.30;18.42;;;34.50;40.80;;;;;;5054310;28;20017;-71
2022/03/26 08:56:38;;;;;;;24.50;20.17;;;34.60;40.10;;;;;;5054633;28;20029;-73
2022/03/26 08:59:04;;;;;;;28.08;19.55;;;35.00;39.80;;;;;;5054665;28;20029;-73
2022/03/26 09:01:30;;;;;;;26.65;19.23;;;35.60;38.70;;;;;;5054568;28;20429;-74
2022/03/26 09:03:55;;;;;;;24.73;19.05;;;35.90;38.10;;;;;;5054531;28;20071;-75
2022/03/26 09:06:21;;;;;;;24.55;19.13;;;36.00;37.80;;;;;;5054334;28;20049;-70
2022/03/26 09:08:47;;;;;;;22.50;19.48;;;36.30;37.80;;;;;;5054650;28;20025;-75
2022/03/26 09:11:13;;;;;;;22.52;19.00;;;36.60;37.30;;;;;;5054404;28;20029;-72
2022/03/26 09:13:38;;;;;;;25.23;19.35;;;36.90;36.40;;;;;;5054404;28;20147;-73
2022/03/26 09:16:04;;;;;;;25.70;18.88;;;37.00;36.40;;;;;;5054377;28;20025;-75
2022/03/26 09:18:30;;;;;;;26.02;18.83;;;37.30;36.70;;;;;;5054269;28;20162;-72
2022/03/26 09:20:56;;;;;;;24.67;19.73;;;37.50;35.80;;;;;;5054798;28;20147;-71
2022/03/26 09:23:22;;;;;;;25.77;20.17;;;37.80;35.80;;;;;;5054404;28;20047;-74
2022/03/26 09:25:48;;;;;;;24.55;19.02;;;37.50;35.30;;;;;;5054414;28;20098;-72
2022/03/26 09:28:13;;;;;;;25.25;20.08;;;37.70;34.60;;;;;;5054051;28;20478;-73
2022/03/26 09:30:39;;;;;;;28.45;19.90;;;37.90;34.80;;;;;;5054100;28;20025;-75
2022/03/26 09:33:06;;;;;;;28.23;19.85;;;38.40;34.70;;;;;;5053991;28;20063;-74
2022/03/26 09:35:32;;;;;;;27.23;20.95;;;38.20;34.70;;;;;;5053921;28;20049;-74
2022/03/26 09:37:57;;;;;;;21.83;19.48;;;38.30;34.90;;;;;;5053887;28;20036;-74
2022/03/26 09:40:24;;;;;;;22.83;19.23;;;38.70;34.30;;;;;;5054157;28;20025;-73
2022/03/26 09:42:50;;;;;;;24.65;20.52;;;38.80;34.10;;;;;;5054356;28;20021;-75
2022/03/26 09:45:16;;;;;;;25.67;19.45;;;39.10;33.80;;;;;;5054297;28;20028;-71
2022/03/26 09:47:42;;;;;;;24.65;20.08;;;39.50;33.50;;;;;;5053677;28;20021;-74
2022/03/26 09:50:09;;;;;;;26.27;21.88;;;39.60;33.40;;;;;;5053970;28;20032;-75
2022/03/26 09:52:36;;;;;;;30.73;19.77;;;39.40;32.80;;;;;;5053609;28;20390;-73
2022/03/26 09:55:04;;;;;;;24.33;20.98;;;39.00;33.40;;;;;;5053510;28;20024;-73
2022/03/26 09:57:30;;;;;;;28.33;21.27;;;39.10;33.30;;;;;;5053587;28;20385;-73
2022/03/26 09:59:57;;;;;;;28.27;21.35;;;39.10;32.60;;;;;;5053462;28;20078;-75
2022/03/26 10:02:23;;;;;;;25.02;21.20;;;39.00;32.90;;;;;;5053735;28;20390;-75
2022/03/26 10:04:49;;;;;;;28.40;22.45;;;38.60;32.80;;;;;;5052927;28;20025;-73
2022/03/26 10:07:15;;;;;;;26.95;21.55;;;39.10;33.20;;;;;;5053362;28;20082;-74
2022/03/26 10:09:45;;;;;;;27.60;21.60;;;39.20;32.60;;;;;;5053367;28;20020;-71
2022/03/26 10:12:19;;;;;;;28.52;21.35;;;39.00;32.30;;;;;;5053421;28;20035;-73
2022/03/26 10:14:46;;;;;;;26.42;21.63;;;39.20;32.70;;;;;;5053907;28;20092;-74
2022/03/26 10:17:17;;;;;;;27.00;22.52;;;39.00;32.10;;;;;;5035456;28;20363;-73
2022/03/26 10:19:54;;;;;;;27.42;21.92;;;39.20;31.90;;;;;;5053751;28;20428;-72
2022/03/26 10:22:39;;;;;;;26.50;21.95;;;39.40;32.10;;;;;;5040073;28;20034;-74
2022/03/26 10:25:13;;;;;;;28.92;23.27;;;39.60;32.00;;;;;;5041418;28;20025;-76
2022/03/26 10:27:47;;;;;;;32.97;24.65;;;39.20;31.60;;;;;;5053219;28;20127;-74
2022/03/26 10:30:18;;;;;;;28.30;23.08;;;39.30;31.70;;;;;;5054071;28;20023;-74
2022/03/26 10:32:49;;;;;;;26.10;23.30;;;38.90;31.60;;;;;;5035737;28;20108;-72
2022/03/26 10:35:19;;;;;;;30.67;25.70;;;38.50;32.40;;;;;;5033228;28;20022;-70
2022/03/26 10:37:51;;;;;;;27.27;22.77;;;38.20;32.00;;;;;;5034317;28;20026;-72
2022/03/26 10:40:24;;;;;;;28.58;23.52;;;38.20;32.80;;;;;;5053569;28;20024;-72
2022/03/26 10:42:54;;;;;;;29.90;23.58;;;38.20;31.70;;;;;;5046378;28;20067;-71
2022/03/26 10:45:21;;;;;;;31.70;24.40;;;38.00;31.80;;;;;;5053143;28;20021;-70
2022/03/26 10:47:50;;;;;;;30.73;25.33;;;37.60;32.70;;;;;;5051595;28;20139;-72
2022/03/26 10:50:16;;;;;;;29.73;24.45;;;37.20;33.10;;;;;;5046643;28;20107;-70
2022/03/26 10:52:42;;;;;;;30.70;24.95;;;36.80;32.70;;;;;;5053453;28;20045;-73
2022/03/26 10:55:18;;;;;;;34.05;24.90;;;36.90;33.40;;;;;;5053020;28;20017;-70
2022/03/26 10:57:45;;;;;;;27.80;24.02;;;37.10;32.80;;;;;;5053090;28;20028;-73
2022/03/26 11:00:17;;;;;;;30.20;25.00;;;37.80;32.60;;;;;;5052962;28;20040;-74
2022/03/26 11:02:44;;;;;;;32.40;26.10;;;37.60;31.70;;;;;;5053384;28;20025;-75
2022/03/26 11:05:11;;;;;;;30.20;24.95;;;37.10;32.30;;;;;;5037840;28;20042;-77
2022/03/26 11:07:38;;;;;;;33.75;26.02;;;37.20;32.90;;;;;;5042095;28;20116;-71
2022/03/26 11:10:08;;;;;;;29.33;24.92;;;36.90;32.50;;;;;;5052120;28;20024;-70
2022/03/26 11:12:40;;;;;;;29.60;25.40;;;37.50;32.80;;;;;;5052876;28;20135;-71
2022/03/26 11:15:10;;;;;;;29.75;25.75;;;37.50;32.50;;;;;;5051742;28;20017;-71
2022/03/26 11:17:58;;;;;;;31.83;25.00;;;37.10;32.40;;;;;;5053259;28;20028;-70
2022/03/26 11:20:41;;;;;;;32.72;26.58;;;37.20;32.70;;;;;;5054981;28;20473;-70
2022/03/26 11:23:48;;;;;;;33.90;25.98;;;36.60;32.90;;;;;;5054815;28;20028;-70
2022/03/26 11:26:40;;;;;;;30.27;25.80;;;36.40;33.00;;;;;;5046208;28;20099;-70
2022/03/26 11:29:31;;;;;;;32.33;26.80;;;36.50;32.20;;;;;;5054917;28;20068;-71
2022/03/26 11:31:59;;;;;;;30.50;24.58;;;36.00;32.70;;;;;;5056619;28;20028;-70
2022/03/26 11:34:30;;;;;;;33.03;26.73;;;36.10;33.00;;;;;;5056223;28;20028;-70
2022/03/26 11:37:11;;;;;;;30.42;25.48;;;35.60;32.30;;;;;;5056533;28;20032;-70
2022/03/26 11:39:49;;;;;;;36.00;27.75;;;35.60;33.50;;;;;;5056794;28;20063;-70
2022/03/26 11:42:15;;;;;;;38.17;28.90;;;33.90;35.00;;;;;;5056637;28;20029;-70
2022/03/26 11:44:45;;;;;;;38.13;28.17;;;32.40;35.80;;;;;;5056026;28;20025;-70
2022/03/26 11:53:10;;;;;;;38.83;27.70;;;23.90;45.60;;;;;;5055697;28;20036;-69
2022/03/26 11:55:45;;;;;;;45.65;27.23;;;23.20;47.80;;;;;;5055779;28;20029;-69
2022/03/26 11:58:14;;;;;;;41.85;27.65;;;22.60;48.10;;;;;;5056358;28;20021;-70
2022/03/26 12:01:01;;;;;;;45.75;30.30;;;22.40;48.30;;;;;;5055805;28;20096;-70
2022/03/26 12:03:31;;;;;;;42.47;27.25;;;22.40;47.70;;;;;;5056317;28;20028;-70
2022/03/26 12:08:57;;;;;;;42.90;27.67;;;22.10;48.00;;;;;;5055338;28;20029;-69
2022/03/26 12:11:28;;;;;;;44.72;28.40;;;22.20;47.30;;;;;;5056139;28;20275;-69
2022/03/26 12:14:01;;;;;;;45.95;28.67;;;22.00;46.90;;;;;;5055815;28;20016;-69
2022/03/26 12:16:52;;;;;;;46.50;27.33;;;22.00;48.40;;;;;;5037597;28;20546;-69
2022/03/26 12:19:39;;;;;;;46.05;27.88;;;21.90;47.60;;;;;;5055408;28;20021;-70
2022/03/26 12:22:34;;;;;;;41.40;26.00;;;21.90;45.70;;;;;;5055696;28;20025;-70
2022/03/26 12:25:01;;;;;;;41.03;25.95;;;21.90;46.30;;;;;;5042279;28;20527;-69
2022/03/26 12:27:27;;;;;;;41.67;27.08;;;21.70;45.30;;;;;;5055450;28;20025;-70
2022/03/26 12:29:54;;;;;;;40.47;26.75;;;21.60;45.40;;;;;;5054338;28;20475;-69
2022/03/26 12:32:20;;;;;;;40.45;26.33;;;21.60;45.30;;;;;;5055126;28;20017;-70
2022/03/26 12:35:06;;;;;;;41.15;25.73;;;21.60;45.00;;;;;;5055676;28;20025;-70
2022/03/26 12:37:33;;;;;;;40.25;24.80;;;21.60;45.20;;;;;;5055424;28;20381;-70
2022/03/26 12:39:59;;;;;;;42.58;26.58;;;21.80;44.50;;;;;;5055018;28;20064;-70
2022/03/26 12:42:26;;;;;;;36.65;24.35;;;22.10;46.70;;;;;;5054975;28;20086;-70